Time;durP1;ratioP1;P1;durP2;ratioP2;P2;SDS_P1;SDS_P2;PMS_P1;PMS_P2;Temp;Humidity;BMP_temperature;BMP_pressure;BME280_temperature;BME280_humidity;BME280_pressure;Samples;Min_cycle;Max_cycle;Signal;HPM_P1;HPM_P2
2021/12/12 00:01:03;;;;;;;7.80;6.10;;;;;;;;;;5073217;28;20397;-72
2021/12/12 00:03:39;;;;;;;7.83;5.80;;;;;;;;;;5071956;28;20825;-73
2021/12/12 00:06:07;;;;;;;7.27;5.40;;;;;;;;;;5071955;28;20408;-73
2021/12/12 00:08:34;;;;;;;7.37;5.70;;;;;;;;;;5073079;28;20416;-73
2021/12/12 00:11:02;;;;;;;7.00;5.30;;;;;;;;;;5073112;28;20441;-73
2021/12/12 00:13:31;;;;;;;6.33;5.40;;;;;;;;;;5071668;28;20871;-73
2021/12/12 00:15:57;;;;;;;7.80;5.93;;;;;;;;;;5071639;28;20472;-73
2021/12/12 00:18:23;;;;;;;6.97;5.77;;;;;;;;;;5073031;28;20421;-73
2021/12/12 00:20:50;;;;;;;7.17;5.70;;;;;;;;;;5072922;28;20406;-73
2021/12/12 00:23:16;;;;;;;7.23;5.67;;;;;;;;;;5073010;28;20393;-73
2021/12/12 00:25:44;;;;;;;7.37;6.23;;;;;;;;;;5071517;28;20891;-73
2021/12/12 00:28:11;;;;;;;8.40;6.20;;;;;;;;;;5073184;28;20397;-72
2021/12/12 00:30:38;;;;;;;7.90;5.67;;;;;;;;;;5075686;28;20421;-73
2021/12/12 00:33:04;;;;;;;8.03;5.40;;;;;;;;;;5075448;28;20741;-73
2021/12/12 00:35:30;;;;;;;6.30;5.70;;;;;;;;;;5076941;28;20419;-73
2021/12/12 00:38:00;;;;;;;6.83;5.40;;;;;;;;;;5076567;28;20505;-72
2021/12/12 00:40:32;;;;;;;5.90;4.83;;;;;;;;;;5075517;28;20975;-73
2021/12/12 00:43:01;;;;;;;7.90;5.10;;;;;;;;;;5076777;28;20550;-72
2021/12/12 00:45:27;;;;;;;6.50;5.07;;;;;;;;;;5076811;28;20397;-72
2021/12/12 00:47:54;;;;;;;6.53;5.87;;;;;;;;;;5076596;28;20406;-73
2021/12/12 00:50:25;;;;;;;7.17;5.30;;;;;;;;;;5076201;28;20434;-72
2021/12/12 00:52:51;;;;;;;7.40;5.50;;;;;;;;;;5076463;28;20410;-72
2021/12/12 00:55:18;;;;;;;7.10;6.13;;;;;;;;;;5076275;28;20987;-72
2021/12/12 00:57:50;;;;;;;7.33;5.40;;;;;;;;;;5076236;28;20469;-72
2021/12/12 01:00:16;;;;;;;6.93;5.83;;;;;;;;;;5076617;28;20480;-72
2021/12/12 01:02:42;;;;;;;6.77;4.80;;;;;;;;;;5076289;28;20481;-72
2021/12/12 01:05:10;;;;;;;6.00;4.83;;;;;;;;;;5075072;28;20427;-72
2021/12/12 01:07:38;;;;;;;7.03;5.20;;;;;;;;;;5076160;28;20417;-72
2021/12/12 01:10:14;;;;;;;9.00;5.53;;;;;;;;;;5076230;28;20412;-73
2021/12/12 01:12:41;;;;;;;9.83;6.73;;;;;;;;;;5074711;28;20398;-73
2021/12/12 01:15:14;;;;;;;9.30;5.57;;;;;;;;;;5076007;28;20447;-72
2021/12/12 01:17:42;;;;;;;9.07;6.20;;;;;;;;;;5075863;28;20458;-72
2021/12/12 01:20:20;;;;;;;9.37;6.10;;;;;;;;;;5076018;28;20433;-75
2021/12/12 01:22:47;;;;;;;9.90;6.30;;;;;;;;;;5075948;28;20410;-73
2021/12/12 01:25:16;;;;;;;10.80;5.97;;;;;;;;;;5074619;28;20401;-74
2021/12/12 01:27:42;;;;;;;9.20;6.27;;;;;;;;;;5075814;28;20424;-73
2021/12/12 01:30:10;;;;;;;9.03;6.10;;;;;;;;;;5075700;28;20406;-73
2021/12/12 01:32:37;;;;;;;8.07;5.87;;;;;;;;;;5075883;28;20433;-73
2021/12/12 01:35:13;;;;;;;7.73;6.00;;;;;;;;;;5075953;28;20885;-73
2021/12/12 01:37:42;;;;;;;6.77;5.60;;;;;;;;;;5075658;28;20480;-73
2021/12/12 01:40:08;;;;;;;6.83;5.97;;;;;;;;;;5074881;28;20412;-73
2021/12/12 01:42:37;;;;;;;6.20;5.60;;;;;;;;;;5075756;28;20399;-73
2021/12/12 01:45:26;;;;;;;7.57;5.13;;;;;;;;;;5075505;28;20426;-74
2021/12/12 01:47:56;;;;;;;9.13;5.77;;;;;;;;;;5065146;28;20413;-73
2021/12/12 01:50:30;;;;;;;9.87;6.07;;;;;;;;;;5075573;28;20404;-73
2021/12/12 01:52:57;;;;;;;9.47;5.83;;;;;;;;;;5075337;28;20408;-73
2021/12/12 01:55:28;;;;;;;8.83;5.43;;;;;;;;;;5074987;28;20889;-73
2021/12/12 01:57:56;;;;;;;6.60;5.73;;;;;;;;;;5073975;28;20460;-73
2021/12/12 02:00:25;;;;;;;6.70;5.13;;;;;;;;;;5075375;28;20505;-73
2021/12/12 02:02:52;;;;;;;7.80;5.80;;;;;;;;;;5075138;28;20401;-71
2021/12/12 02:05:19;;;;;;;9.40;5.57;;;;;;;;;;5074770;28;20464;-71
2021/12/12 02:07:46;;;;;;;7.17;5.47;;;;;;;;;;5075024;28;20414;-71
2021/12/12 02:10:22;;;;;;;6.50;5.33;;;;;;;;;;5075127;28;20772;-72
2021/12/12 02:12:48;;;;;;;7.40;5.77;;;;;;;;;;5073755;28;20414;-71
2021/12/12 02:15:16;;;;;;;7.27;6.10;;;;;;;;;;5075035;28;20445;-72
2021/12/12 02:17:45;;;;;;;10.10;5.03;;;;;;;;;;5073539;28;20465;-73
2021/12/12 02:20:29;;;;;;;6.10;4.50;;;;;;;;;;5074935;28;20451;-73
2021/12/12 02:23:12;;;;;;;7.97;4.67;;;;;;;;;;5073484;28;20523;-74
2021/12/12 02:36:40;;;;;;;4.63;3.57;;;;;;;;;;5074746;28;20488;-73
2021/12/12 02:39:15;;;;;;;6.07;3.97;;;;;;;;;;5074431;28;20451;-73
2021/12/12 02:41:41;;;;;;;4.27;3.87;;;;;;;;;;5074527;28;20803;-72
2021/12/12 02:44:07;;;;;;;5.97;4.40;;;;;;;;;;5072862;28;20847;-72
2021/12/12 02:46:35;;;;;;;6.73;4.50;;;;;;;;;;5074150;28;20402;-73
2021/12/12 02:49:10;;;;;;;7.90;4.03;;;;;;;;;;5074456;28;20928;-72
2021/12/12 02:51:38;;;;;;;4.50;4.07;;;;;;;;;;5072816;28;20839;-72
2021/12/12 02:54:04;;;;;;;7.57;4.40;;;;;;;;;;5074003;28;20417;-72
2021/12/12 02:56:37;;;;;;;6.80;4.30;;;;;;;;;;5073666;28;20472;-72
2021/12/12 02:59:04;;;;;;;6.20;4.40;;;;;;;;;;5072697;28;20453;-72
2021/12/12 03:01:44;;;;;;;7.47;4.13;;;;;;;;;;5072554;28;20413;-72
2021/12/12 03:04:11;;;;;;;6.17;4.20;;;;;;;;;;5073948;28;20437;-73
2021/12/12 03:06:39;;;;;;;5.00;3.87;;;;;;;;;;5073760;28;20402;-72
2021/12/12 03:09:08;;;;;;;4.37;3.20;;;;;;;;;;5073701;28;20405;-72
2021/12/12 03:11:34;;;;;;;5.43;4.10;;;;;;;;;;5073672;28;20407;-72
2021/12/12 03:14:00;;;;;;;5.97;4.10;;;;;;;;;;5073355;28;20607;-72
2021/12/12 03:16:26;;;;;;;4.30;3.90;;;;;;;;;;5073582;28;20488;-72
2021/12/12 03:18:53;;;;;;;4.13;3.73;;;;;;;;;;5073752;28;20398;-72
2021/12/12 03:21:32;;;;;;;9.30;3.70;;;;;;;;;;5073569;28;20850;-72
2021/12/12 03:24:04;;;;;;;4.53;3.57;;;;;;;;;;5073466;28;20409;-72
2021/12/12 03:26:30;;;;;;;7.33;4.47;;;;;;;;;;5073488;28;20439;-73
2021/12/12 03:28:57;;;;;;;4.17;3.77;;;;;;;;;;5073380;28;20408;-72
2021/12/12 03:31:50;;;;;;;4.47;3.90;;;;;;;;;;5073441;28;20444;-72
2021/12/12 03:34:19;;;;;;;7.10;4.87;;;;;;;;;;5070314;28;20820;-72
2021/12/12 03:36:45;;;;;;;6.43;4.60;;;;;;;;;;5073191;28;20576;-72
2021/12/12 03:39:14;;;;;;;7.27;3.73;;;;;;;;;;5073157;28;20406;-72
2021/12/12 03:41:40;;;;;;;6.10;4.10;;;;;;;;;;5073328;28;20416;-72
2021/12/12 03:44:09;;;;;;;5.17;4.27;;;;;;;;;;5073027;28;20468;-72
2021/12/12 03:46:35;;;;;;;5.17;3.63;;;;;;;;;;5073154;28;20459;-72
2021/12/12 03:49:02;;;;;;;9.50;4.50;;;;;;;;;;5071967;28;20442;-72
2021/12/12 03:51:29;;;;;;;5.20;4.30;;;;;;;;;;5073047;28;20416;-72
2021/12/12 03:53:56;;;;;;;6.77;4.20;;;;;;;;;;5072939;28;20462;-73
2021/12/12 03:56:22;;;;;;;4.60;4.10;;;;;;;;;;5072728;28;20564;-72
2021/12/12 03:58:49;;;;;;;5.37;3.90;;;;;;;;;;5073060;28;20482;-71
2021/12/12 04:01:21;;;;;;;5.50;4.77;;;;;;;;;;5071642;28;20713;-72
2021/12/12 04:03:49;;;;;;;6.10;4.13;;;;;;;;;;5072587;28;20771;-71
2021/12/12 04:06:16;;;;;;;13.67;4.37;;;;;;;;;;5072907;28;20396;-72
2021/12/12 04:08:45;;;;;;;6.20;4.13;;;;;;;;;;5072831;28;20399;-72
2021/12/12 04:11:16;;;;;;;4.50;3.73;;;;;;;;;;5071336;28;20429;-72
2021/12/12 04:13:43;;;;;;;5.73;4.20;;;;;;;;;;5072875;28;20420;-72
2021/12/12 04:16:10;;;;;;;5.37;4.37;;;;;;;;;;5071511;28;20454;-72
2021/12/12 04:18:36;;;;;;;6.00;3.90;;;;;;;;;;5079763;28;20467;-71
2021/12/12 04:21:03;;;;;;;7.03;4.50;;;;;;;;;;5093039;28;20962;-71
2021/12/12 04:23:29;;;;;;;7.50;4.90;;;;;;;;;;5093053;28;20948;-73
2021/12/12 04:26:07;;;;;;;10.47;4.90;;;;;;;;;;5092979;28;20445;-72
2021/12/12 04:28:33;;;;;;;6.30;4.07;;;;;;;;;;5093034;28;20396;-71
2021/12/12 04:30:59;;;;;;;5.47;4.00;;;;;;;;;;5092812;28;20409;-72
2021/12/12 04:33:25;;;;;;;7.00;3.90;;;;;;;;;;5093004;28;20423;-72
2021/12/12 04:35:51;;;;;;;6.93;3.90;;;;;;;;;;5091462;28;20495;-72
2021/12/12 04:38:17;;;;;;;6.20;4.07;;;;;;;;;;5092861;28;20455;-72
2021/12/12 04:40:43;;;;;;;8.50;4.23;;;;;;;;;;5091569;28;20409;-72
2021/12/12 04:43:09;;;;;;;8.63;4.40;;;;;;;;;;5092726;28;20839;-72
2021/12/12 04:45:51;;;;;;;6.43;4.07;;;;;;;;;;5092827;28;20495;-72
2021/12/12 04:51:18;;;;;;;5.63;4.00;;;;;;;;;;5093017;28;20466;-72
2021/12/12 04:54:13;;;;;;;6.40;4.10;;;;;;;;;;5092859;28;20874;-72
2021/12/12 04:56:48;;;;;;;4.97;3.87;;;;;;;;;;5075019;28;20878;-71
2021/12/12 04:59:24;;;;;;;5.57;3.00;;;;;;;;;;5091303;28;20419;-71
2021/12/12 05:01:56;;;;;;;5.80;3.93;;;;;;;;;;5091237;28;20478;-72
2021/12/12 05:04:36;;;;;;;6.60;3.70;;;;;;;;;;5092543;28;20413;-72
2021/12/12 05:07:08;;;;;;;7.83;4.23;;;;;;;;;;5092572;28;20396;-72
2021/12/12 05:09:37;;;;;;;5.33;3.43;;;;;;;;;;5092614;28;20796;-72
2021/12/12 05:12:05;;;;;;;6.10;3.83;;;;;;;;;;5092257;28;20451;-72
2021/12/12 05:14:35;;;;;;;5.40;3.43;;;;;;;;;;5092463;28;20424;-72
2021/12/12 05:17:06;;;;;;;5.90;4.30;;;;;;;;;;5095398;28;20547;-72
2021/12/12 05:19:32;;;;;;;4.40;4.00;;;;;;;;;;5094996;28;20492;-71
2021/12/12 05:22:18;;;;;;;4.70;3.63;;;;;;;;;;5096080;28;20499;-70
2021/12/12 05:24:48;;;;;;;7.33;3.83;;;;;;;;;;5096215;28;20456;-72
2021/12/12 05:27:15;;;;;;;4.50;3.47;;;;;;;;;;5095975;28;20418;-72
2021/12/12 05:30:20;;;;;;;4.73;3.90;;;;;;;;;;5094743;28;20883;-72
2021/12/12 05:32:48;;;;;;;4.63;3.40;;;;;;;;;;4997514;28;20432;-71
2021/12/12 05:35:15;;;;;;;4.67;3.63;;;;;;;;;;5010647;28;20432;-72
2021/12/12 05:37:41;;;;;;;4.87;3.90;;;;;;;;;;5033448;28;20480;-71
2021/12/12 05:40:09;;;;;;;4.77;3.67;;;;;;;;;;5075710;28;20773;-72
2021/12/12 05:42:36;;;;;;;6.43;3.93;;;;;;;;;;5075668;28;20404;-71
2021/12/12 05:45:04;;;;;;;4.80;3.80;;;;;;;;;;5075493;28;20426;-72
2021/12/12 05:47:30;;;;;;;4.83;3.53;;;;;;;;;;5074261;28;20438;-71
2021/12/12 05:49:57;;;;;;;4.47;3.20;;;;;;;;;;5075449;28;20441;-72
2021/12/12 05:52:23;;;;;;;7.00;4.30;;;;;;;;;;5075485;28;20421;-72
2021/12/12 05:54:50;;;;;;;5.07;3.70;;;;;;;;;;5075212;28;20451;-71
2021/12/12 05:57:19;;;;;;;4.90;3.93;;;;;;;;;;5073966;28;20477;-72
2021/12/12 05:59:46;;;;;;;4.80;3.53;;;;;;;;;;5075393;28;20418;-72
2021/12/12 06:02:12;;;;;;;8.53;3.57;;;;;;;;;;5075342;28;20458;-72
2021/12/12 06:04:38;;;;;;;5.27;3.37;;;;;;;;;;5075311;28;20401;-72
2021/12/12 06:07:05;;;;;;;6.53;3.97;;;;;;;;;;5086741;28;20429;-72
2021/12/12 06:09:33;;;;;;;4.77;3.53;;;;;;;;;;5095424;28;20398;-73
2021/12/12 06:12:00;;;;;;;3.73;3.30;;;;;;;;;;5095227;28;20400;-72
2021/12/12 06:14:28;;;;;;;3.90;3.47;;;;;;;;;;5094899;28;20444;-72
2021/12/12 06:16:54;;;;;;;6.80;3.80;;;;;;;;;;5094977;28;20461;-71
2021/12/12 06:19:22;;;;;;;6.20;3.73;;;;;;;;;;5093957;28;20417;-72
2021/12/12 06:21:52;;;;;;;5.57;3.83;;;;;;;;;;5081841;28;20418;-72
2021/12/12 06:24:19;;;;;;;4.27;3.83;;;;;;;;;;5075039;28;20388;-72
2021/12/12 06:26:45;;;;;;;4.37;3.40;;;;;;;;;;5074595;28;20763;-72
2021/12/12 06:29:11;;;;;;;6.13;4.40;;;;;;;;;;5073624;28;20944;-73
2021/12/12 06:31:39;;;;;;;6.47;3.50;;;;;;;;;;5074636;28;20418;-72
2021/12/12 06:34:06;;;;;;;6.33;4.43;;;;;;;;;;5073505;28;20394;-71
2021/12/12 06:36:32;;;;;;;4.40;4.00;;;;;;;;;;5087272;28;20616;-72
2021/12/12 06:38:58;;;;;;;4.87;3.50;;;;;;;;;;5093605;28;20410;-72
2021/12/12 06:41:25;;;;;;;6.97;4.17;;;;;;;;;;5094808;28;20413;-72
2021/12/12 06:43:52;;;;;;;6.60;4.20;;;;;;;;;;5094547;28;20519;-72
2021/12/12 06:46:20;;;;;;;9.90;4.67;;;;;;;;;;5094642;28;20420;-72
2021/12/12 06:48:46;;;;;;;6.27;3.90;;;;;;;;;;5094640;28;20504;-72
2021/12/12 06:51:12;;;;;;;5.30;4.00;;;;;;;;;;5080752;28;20425;-72
2021/12/12 06:53:40;;;;;;;7.60;4.43;;;;;;;;;;5074336;28;20512;-72
2021/12/12 06:56:08;;;;;;;4.90;3.57;;;;;;;;;;5073961;28;20461;-72
2021/12/12 06:58:34;;;;;;;5.10;4.03;;;;;;;;;;5074287;28;20422;-72
2021/12/12 07:01:09;;;;;;;5.90;4.57;;;;;;;;;;5074061;28;20410;-73
2021/12/12 07:03:36;;;;;;;9.47;4.50;;;;;;;;;;5074137;28;20416;-72
2021/12/12 07:06:02;;;;;;;5.37;3.63;;;;;;;;;;5072844;28;20444;-72
2021/12/12 07:08:28;;;;;;;5.40;3.90;;;;;;;;;;5087587;28;20433;-72
2021/12/12 07:10:55;;;;;;;5.47;3.53;;;;;;;;;;5091275;28;20422;-72
2021/12/12 07:13:21;;;;;;;7.83;4.53;;;;;;;;;;5091949;28;20946;-73
2021/12/12 07:15:48;;;;;;;4.60;3.83;;;;;;;;;;5093120;28;20445;-71
2021/12/12 07:18:16;;;;;;;6.63;4.60;;;;;;;;;;5087486;28;21005;-70
2021/12/12 07:20:42;;;;;;;5.50;4.93;;;;;;;;;;5094154;28;20405;-74
2021/12/12 07:23:09;;;;;;;9.67;4.83;;;;;;;;;;5092744;28;20492;-69
2021/12/12 07:25:37;;;;;;;6.87;5.07;;;;;;;;;;5090984;28;20444;-79
2021/12/12 07:28:03;;;;;;;31.60;16.80;;;;;;;;;;5093807;28;20400;-68
2021/12/12 07:30:29;;;;;;;74.10;32.00;;;;;;;;;;5086395;28;20432;-77
2021/12/12 07:32:56;;;;;;;8.30;5.80;;;;;;;;;;5071707;28;20898;-71
2021/12/12 07:35:22;;;;;;;6.80;5.07;;;;;;;;;;5075613;28;20414;-71
2021/12/12 07:37:49;;;;;;;7.20;4.53;;;;;;;;;;5082922;28;20499;-71
2021/12/12 07:40:15;;;;;;;6.73;5.03;;;;;;;;;;5070937;28;20912;-69
2021/12/12 07:42:43;;;;;;;5.47;4.13;;;;;;;;;;5071523;28;20410;-69
2021/12/12 07:45:09;;;;;;;5.20;4.00;;;;;;;;;;5071573;28;20427;-72
2021/12/12 07:47:35;;;;;;;5.33;4.53;;;;;;;;;;5071629;28;20407;-71
2021/12/12 07:50:03;;;;;;;7.40;4.80;;;;;;;;;;5072692;28;20426;-72
2021/12/12 07:52:30;;;;;;;6.37;4.53;;;;;;;;;;5073106;28;20413;-71
2021/12/12 07:54:57;;;;;;;8.07;4.67;;;;;;;;;;5072501;28;20456;-70
2021/12/12 07:57:26;;;;;;;6.77;4.80;;;;;;;;;;5072702;28;20469;-71
2021/12/12 07:59:54;;;;;;;4.83;4.07;;;;;;;;;;5073182;28;20441;-71
2021/12/12 08:02:20;;;;;;;7.17;4.40;;;;;;;;;;5073252;28;20492;-72
2021/12/12 08:04:47;;;;;;;5.50;4.00;;;;;;;;;;5073207;28;20398;-72
2021/12/12 08:07:15;;;;;;;7.37;4.33;;;;;;;;;;5073141;28;20404;-73
2021/12/12 08:09:42;;;;;;;5.27;3.97;;;;;;;;;;5072532;28;20529;-71
2021/12/12 08:12:10;;;;;;;6.00;4.30;;;;;;;;;;5073065;28;20424;-72
2021/12/12 08:14:36;;;;;;;5.87;4.00;;;;;;;;;;5073166;28;20426;-70
2021/12/12 08:17:03;;;;;;;4.93;4.30;;;;;;;;;;5072852;28;20819;-69
2021/12/12 08:19:29;;;;;;;4.83;3.90;;;;;;;;;;5072421;28;20500;-69
2021/12/12 08:21:59;;;;;;;4.17;3.30;;;;;;;;;;5072832;28;20942;-68
2021/12/12 08:24:25;;;;;;;5.17;3.93;;;;;;;;;;5072855;28;20443;-70
2021/12/12 08:26:52;;;;;;;5.93;4.23;;;;;;;;;;5072291;28;20441;-71
2021/12/12 08:29:19;;;;;;;6.17;3.60;;;;;;;;;;5071995;28;20926;-68
2021/12/12 08:31:46;;;;;;;4.63;3.90;;;;;;;;;;5071393;28;20422;-68
2021/12/12 08:34:14;;;;;;;5.27;3.90;;;;;;;;;;5072671;28;20401;-69
2021/12/12 08:36:42;;;;;;;5.03;3.33;;;;;;;;;;5072714;28;20542;-69
2021/12/12 08:39:08;;;;;;;3.23;2.93;;;;;;;;;;5072177;28;20428;-69
2021/12/12 08:41:35;;;;;;;4.07;3.30;;;;;;;;;;5072643;28;20413;-67
2021/12/12 08:44:02;;;;;;;3.20;2.90;;;;;;;;;;5076516;28;20421;-68
2021/12/12 08:46:28;;;;;;;3.20;2.90;;;;;;;;;;5084021;28;20435;-67
2021/12/12 08:48:54;;;;;;;2.50;2.30;;;;;;;;;;5087603;28;20885;-68
2021/12/12 08:51:29;;;;;;;4.77;2.93;;;;;;;;;;5083803;28;20420;-68
2021/12/12 08:53:56;;;;;;;3.40;2.70;;;;;;;;;;5094795;28;20416;-68
2021/12/12 08:56:41;;;;;;;7.43;3.30;;;;;;;;;;5083617;28;20503;-70
2021/12/12 08:59:07;;;;;;;5.30;3.40;;;;;;;;;;5086403;28;20426;-68
2021/12/12 09:01:33;;;;;;;4.00;2.53;;;;;;;;;;5082040;28;20428;-69
2021/12/12 09:04:01;;;;;;;3.30;2.70;;;;;;;;;;5079040;28;20455;-70
2021/12/12 09:06:33;;;;;;;3.50;2.90;;;;;;;;;;5075500;28;20467;-68
2021/12/12 09:08:59;;;;;;;2.87;2.63;;;;;;;;;;5079285;28;22043;-69
2021/12/12 09:11:38;;;;;;;3.30;3.00;;;;;;;;;;5094669;28;20409;-69
2021/12/12 09:14:09;;;;;;;7.80;3.03;;;;;;;;;;5093118;28;20889;-69
2021/12/12 09:16:40;;;;;;;3.20;2.40;;;;;;;;;;5079346;28;20460;-71
2021/12/12 09:19:12;;;;;;;4.27;2.80;;;;;;;;;;5091995;28;20455;-69
2021/12/12 09:21:51;;;;;;;3.37;3.07;;;;;;;;;;5088200;28;20414;-69
2021/12/12 09:24:24;;;;;;;4.23;2.73;;;;;;;;;;5075443;28;20461;-71
2021/12/12 09:26:52;;;;;;;3.13;2.83;;;;;;;;;;5086368;28;20417;-70
2021/12/12 09:29:18;;;;;;;2.57;2.17;;;;;;;;;;5082123;28;20413;-72
2021/12/12 09:31:49;;;;;;;2.63;2.43;;;;;;;;;;5076113;28;20441;-71
2021/12/12 09:34:19;;;;;;;5.70;2.87;;;;;;;;;;5075955;28;20485;-74
2021/12/12 09:36:47;;;;;;;3.03;2.40;;;;;;;;;;5095557;28;20519;-71
2021/12/12 09:39:20;;;;;;;73.43;34.20;;;;;;;;;;5094112;28;20449;-73
2021/12/12 09:41:59;;;;;;;16.03;8.17;;;;;;;;;;5085237;28;20467;-72
2021/12/12 09:44:44;;;;;;;3.07;2.60;;;;;;;;;;5093934;28;20452;-73
2021/12/12 09:53:03;;;;;;;2.93;2.50;;;;;;;;;;5079882;28;20444;-72
2021/12/12 09:55:34;;;;;;;2.30;2.10;;;;;;;;;;5075157;28;20460;-69
2021/12/12 09:58:02;;;;;;;3.90;2.70;;;;;;;;;;5075268;28;20454;-72
2021/12/12 10:00:28;;;;;;;2.17;2.03;;;;;;;;;;5075244;28;20406;-67
2021/12/12 10:03:21;;;;;;;2.20;2.00;;;;;;;;;;5074005;28;20480;-72
2021/12/12 10:05:50;;;;;;;2.43;2.17;;;;;;;;;;5071602;28;20415;-69
2021/12/12 10:08:35;;;;;;;3.27;2.37;;;;;;;;;;5075229;28;20421;-71
2021/12/12 10:11:04;;;;;;;3.33;2.00;;;;;;;;;;5075081;28;20912;-75
2021/12/12 10:13:30;;;;;;;2.73;2.40;;;;;;;;;;5082893;28;20449;-76
2021/12/12 10:16:00;;;;;;;2.30;2.07;;;;;;;;;;5092883;28;20420;-76
2021/12/12 10:18:49;;;;;;;2.23;1.70;;;;;;;;;;5090291;28;20467;-73
2021/12/12 10:21:21;;;;;;;2.00;1.90;;;;;;;;;;5087949;28;20438;-74
2021/12/12 10:23:47;;;;;;;1.80;1.50;;;;;;;;;;5086553;28;20414;-74
2021/12/12 10:26:36;;;;;;;3.87;1.80;;;;;;;;;;5080450;28;20534;-78
2021/12/12 10:29:23;;;;;;;3.07;2.00;;;;;;;;;;5084564;28;20432;-73
2021/12/12 10:31:52;;;;;;;3.00;1.90;;;;;;;;;;5084555;28;20425;-69
2021/12/12 10:34:24;;;;;;;2.10;1.80;;;;;;;;;;5084044;28;20433;-74
2021/12/12 10:36:53;;;;;;;6.40;2.10;;;;;;;;;;5074596;28;20555;-69
2021/12/12 10:39:22;;;;;;;2.03;1.83;;;;;;;;;;5074641;28;20408;-73
2021/12/12 10:42:14;;;;;;;2.70;1.93;;;;;;;;;;5076091;28;20847;-69
2021/12/12 10:44:55;;;;;;;1.80;1.70;;;;;;;;;;5089412;28;20760;-69
2021/12/12 10:47:33;;;;;;;3.53;2.00;;;;;;;;;;5094524;28;20490;-73
2021/12/12 10:50:12;;;;;;;2.00;1.60;;;;;;;;;;5076194;28;20440;-69
2021/12/12 10:52:38;;;;;;;50.87;28.43;;;;;;;;;;5087769;28;20450;-71
2021/12/12 10:55:10;;;;;;;53.10;24.60;;;;;;;;;;5094064;28;20911;-74
2021/12/12 10:57:38;;;;;;;22.17;11.70;;;;;;;;;;5094511;28;21023;-78
2021/12/12 11:00:04;;;;;;;38.73;16.80;;;;;;;;;;5086507;28;20553;-74
2021/12/12 11:02:32;;;;;;;5.30;3.17;;;;;;;;;;5073981;28;20946;-72
2021/12/12 11:05:05;;;;;;;4.30;3.53;;;;;;;;;;5072780;28;20502;-75
2021/12/12 11:07:33;;;;;;;7.00;3.37;;;;;;;;;;5071453;28;20413;-70
2021/12/12 11:10:10;;;;;;;8.03;4.10;;;;;;;;;;5073974;28;20412;-70
2021/12/12 11:12:41;;;;;;;4.43;2.30;;;;;;;;;;5073155;28;20439;-67
2021/12/12 11:15:15;;;;;;;5.27;2.90;;;;;;;;;;5073452;28;20447;-72
2021/12/12 11:17:43;;;;;;;3.17;2.50;;;;;;;;;;5073731;28;20463;-70
2021/12/12 11:20:25;;;;;;;2.90;1.77;;;;;;;;;;5073777;28;20417;-70
2021/12/12 11:22:55;;;;;;;9.23;2.27;;;;;;;;;;5072413;28;20393;-68
2021/12/12 11:25:23;;;;;;;2.13;1.93;;;;;;;;;;5073677;28;20421;-68
2021/12/12 11:27:53;;;;;;;2.90;2.20;;;;;;;;;;5072340;28;20407;-69
2021/12/12 11:30:22;;;;;;;2.90;2.00;;;;;;;;;;5073535;28;20404;-69
2021/12/12 11:32:49;;;;;;;2.67;1.87;;;;;;;;;;5073521;28;20410;-67
2021/12/12 11:35:18;;;;;;;3.10;1.87;;;;;;;;;;5073480;28;20400;-71
2021/12/12 11:37:47;;;;;;;5.60;2.30;;;;;;;;;;5073457;28;20464;-70
2021/12/12 11:40:31;;;;;;;2.83;1.73;;;;;;;;;;5072201;28;20405;-71
2021/12/12 11:43:04;;;;;;;2.40;2.03;;;;;;;;;;5073421;28;20494;-69
2021/12/12 11:45:38;;;;;;;1.50;1.37;;;;;;;;;;5073458;28;20439;-72
2021/12/12 11:48:27;;;;;;;2.30;1.57;;;;;;;;;;5072219;28;20419;-72
2021/12/12 11:50:56;;;;;;;1.87;1.67;;;;;;;;;;5073328;28;20503;-71
2021/12/12 11:53:42;;;;;;;2.63;2.40;;;;;;;;;;5073253;28;20591;-71
2021/12/12 11:56:27;;;;;;;2.50;1.80;;;;;;;;;;5059039;28;20473;-70
2021/12/12 11:59:05;;;;;;;2.93;1.73;;;;;;;;;;5073298;28;20420;-69
2021/12/12 12:01:39;;;;;;;2.27;1.73;;;;;;;;;;5073160;28;20405;-69
2021/12/12 12:04:24;;;;;;;3.87;1.93;;;;;;;;;;5073271;28;20415;-70
2021/12/12 12:07:25;;;;;;;4.43;2.00;;;;;;;;;;5073122;28;20470;-71
2021/12/12 12:09:55;;;;;;;4.80;2.20;;;;;;;;;;4991707;28;20419;-70
2021/12/12 12:12:27;;;;;;;4.33;2.10;;;;;;;;;;5058491;28;20522;-71
2021/12/12 12:15:12;;;;;;;2.80;2.10;;;;;;;;;;5072999;28;20393;-68
2021/12/12 12:17:50;;;;;;;3.23;2.10;;;;;;;;;;5072985;28;20800;-71
2021/12/12 12:20:27;;;;;;;4.03;2.10;;;;;;;;;;5073114;28;20404;-69
2021/12/12 12:23:00;;;;;;;3.17;2.20;;;;;;;;;;5073079;28;20445;-70
2021/12/12 12:28:24;;;;;;;3.20;2.00;;;;;;;;;;5077233;28;20457;-69
2021/12/12 12:31:07;;;;;;;2.83;2.30;;;;;;;;;;5076935;28;20463;-68
2021/12/12 12:33:51;;;;;;;3.47;2.17;;;;;;;;;;5077203;28;20412;-70
2021/12/12 12:36:23;;;;;;;3.80;2.20;;;;;;;;;;5076878;28;20404;-69
2021/12/12 12:39:08;;;;;;;2.77;1.90;;;;;;;;;;5076912;28;20413;-69
2021/12/12 12:41:40;;;;;;;2.80;2.50;;;;;;;;;;5076948;28;20489;-71
2021/12/12 12:44:25;;;;;;;2.67;2.00;;;;;;;;;;5076757;28;20478;-69
2021/12/12 12:47:09;;;;;;;2.87;2.03;;;;;;;;;;5076739;28;20945;-70
2021/12/12 12:49:54;;;;;;;3.83;2.30;;;;;;;;;;5076829;28;20396;-70
2021/12/12 12:52:39;;;;;;;3.37;2.40;;;;;;;;;;5075340;28;20412;-69
2021/12/12 12:55:23;;;;;;;3.13;2.30;;;;;;;;;;5076303;28;20463;-72
2021/12/12 12:57:53;;;;;;;2.90;1.90;;;;;;;;;;5076548;28;20537;-69
2021/12/12 13:00:22;;;;;;;2.97;2.17;;;;;;;;;;5075279;28;20915;-70
2021/12/12 13:03:06;;;;;;;2.57;2.00;;;;;;;;;;5075261;28;20757;-71
2021/12/12 13:05:54;;;;;;;3.93;2.13;;;;;;;;;;5076300;28;20412;-70
2021/12/12 13:08:38;;;;;;;4.67;2.20;;;;;;;;;;5076428;28;20432;-68
2021/12/12 13:11:07;;;;;;;2.57;1.90;;;;;;;;;;5076187;28;20499;-70
2021/12/12 13:13:39;;;;;;;2.30;1.80;;;;;;;;;;5076217;28;20424;-68
2021/12/12 13:16:14;;;;;;;12.47;3.20;;;;;;;;;;5076307;28;20399;-70
2021/12/12 13:19:03;;;;;;;2.83;2.13;;;;;;;;;;5076156;28;20432;-70
2021/12/12 13:21:33;;;;;;;2.50;1.80;;;;;;;;;;5076220;28;20451;-70
2021/12/12 13:23:59;;;;;;;4.20;2.07;;;;;;;;;;5074741;28;20478;-69
2021/12/12 13:26:58;;;;;;;2.60;1.67;;;;;;;;;;5075946;28;20891;-69
2021/12/12 13:29:31;;;;;;;3.20;2.30;;;;;;;;;;5070851;28;20405;-71
2021/12/12 13:32:02;;;;;;;3.03;1.90;;;;;;;;;;5074581;28;20939;-69
2021/12/12 13:34:31;;;;;;;3.53;2.00;;;;;;;;;;5075900;28;20404;-68
2021/12/12 13:37:04;;;;;;;2.70;2.00;;;;;;;;;;5074652;28;20460;-68
2021/12/12 13:39:37;;;;;;;3.47;2.50;;;;;;;;;;5075794;28;20408;-70
2021/12/12 13:42:09;;;;;;;3.53;2.10;;;;;;;;;;5075702;28;20409;-69
2021/12/12 13:44:51;;;;;;;2.90;2.10;;;;;;;;;;5075688;28;20411;-71
2021/12/12 13:47:36;;;;;;;2.50;1.80;;;;;;;;;;5075720;28;20392;-68
2021/12/12 13:50:04;;;;;;;2.43;2.00;;;;;;;;;;5075636;28;20792;-71
2021/12/12 13:52:31;;;;;;;2.33;2.10;;;;;;;;;;5075460;28;20385;-71
2021/12/12 13:54:59;;;;;;;3.17;2.57;;;;;;;;;;5075290;28;20405;-69
2021/12/12 13:57:29;;;;;;;4.00;2.23;;;;;;;;;;5075409;28;20464;-68
2021/12/12 14:00:04;;;;;;;2.70;2.27;;;;;;;;;;5075466;28;20443;-70
2021/12/12 14:02:30;;;;;;;1.90;1.70;;;;;;;;;;5075279;28;20503;-68
2021/12/12 14:05:15;;;;;;;2.80;2.33;;;;;;;;;;5075359;28;20403;-68
2021/12/12 14:07:50;;;;;;;5.87;2.30;;;;;;;;;;5075255;28;20409;-68
2021/12/12 14:10:27;;;;;;;2.90;2.10;;;;;;;;;;5075146;28;20406;-71
2021/12/12 14:12:57;;;;;;;2.73;2.00;;;;;;;;;;5075150;28;20987;-70
2021/12/12 14:15:28;;;;;;;4.87;2.30;;;;;;;;;;5075250;28;20556;-72
2021/12/12 14:18:02;;;;;;;5.40;2.50;;;;;;;;;;5075034;28;20538;-68
2021/12/12 14:20:31;;;;;;;3.73;2.47;;;;;;;;;;5075116;28;20464;-72
2021/12/12 14:22:58;;;;;;;3.43;2.60;;;;;;;;;;5074885;28;20879;-71
2021/12/12 14:25:24;;;;;;;3.57;2.37;;;;;;;;;;5074959;28;20402;-70
2021/12/12 14:27:52;;;;;;;6.40;2.93;;;;;;;;;;5074952;28;20400;-70
2021/12/12 14:30:20;;;;;;;5.37;2.20;;;;;;;;;;5074866;28;20484;-71
2021/12/12 14:33:01;;;;;;;3.17;2.60;;;;;;;;;;5074693;28;20915;-70
2021/12/12 14:35:31;;;;;;;5.57;2.80;;;;;;;;;;5074711;28;20415;-71
2021/12/12 14:37:57;;;;;;;4.40;2.53;;;;;;;;;;5074495;28;21009;-71
2021/12/12 14:40:28;;;;;;;7.50;2.70;;;;;;;;;;5073416;28;20406;-70
2021/12/12 14:43:26;;;;;;;4.50;2.60;;;;;;;;;;5074565;28;20417;-70
2021/12/12 14:45:58;;;;;;;5.73;2.70;;;;;;;;;;5030310;28;20420;-70
2021/12/12 14:48:35;;;;;;;5.23;2.87;;;;;;;;;;5074296;28;20462;-71
2021/12/12 14:51:05;;;;;;;8.53;2.63;;;;;;;;;;5074335;28;20396;-71
2021/12/12 14:53:45;;;;;;;3.67;2.93;;;;;;;;;;5074396;28;20389;-69
2021/12/12 14:56:26;;;;;;;3.53;2.37;;;;;;;;;;5073979;28;20562;-70
2021/12/12 14:58:57;;;;;;;2.83;2.23;;;;;;;;;;5074288;28;20428;-69
2021/12/12 15:01:26;;;;;;;4.67;3.33;;;;;;;;;;5074345;28;20381;-71
2021/12/12 15:03:55;;;;;;;3.23;2.40;;;;;;;;;;5074197;28;20400;-71
2021/12/12 15:06:24;;;;;;;5.47;3.23;;;;;;;;;;5074112;28;20389;-70
2021/12/12 15:08:55;;;;;;;4.23;3.10;;;;;;;;;;5074022;28;20401;-71
2021/12/12 15:11:32;;;;;;;4.57;2.83;;;;;;;;;;5073911;28;20486;-70
2021/12/12 15:13:59;;;;;;;5.00;2.90;;;;;;;;;;5073870;28;20911;-71
2021/12/12 15:16:34;;;;;;;3.63;2.67;;;;;;;;;;5073785;28;20891;-68
2021/12/12 15:19:06;;;;;;;4.10;3.10;;;;;;;;;;5072557;28;20411;-69
2021/12/12 15:21:34;;;;;;;3.30;2.60;;;;;;;;;;5072625;28;20458;-70
2021/12/12 15:24:01;;;;;;;3.40;2.77;;;;;;;;;;5073654;28;20412;-71
2021/12/12 15:26:32;;;;;;;3.53;3.13;;;;;;;;;;5073686;28;20403;-70
2021/12/12 15:28:59;;;;;;;5.83;3.40;;;;;;;;;;5073633;28;20404;-68